sensor_id;sensor_type;location;lat;lon;timestamp;P1;durP1;ratioP1;P2;durP2;ratioP2
24745;SDS011;12845;52.042;6.838;2022-09-21T00:00:14;9.05;;;6.93;;
24745;SDS011;12845;52.042;6.838;2022-09-21T00:02:39;10.10;;;7.47;;
24745;SDS011;12845;52.042;6.838;2022-09-21T00:05:05;11.23;;;7.03;;
24745;SDS011;12845;52.042;6.838;2022-09-21T00:07:30;11.75;;;7.55;;
24745;SDS011;12845;52.042;6.838;2022-09-21T00:09:55;13.95;;;7.05;;
24745;SDS011;12845;52.042;6.838;2022-09-21T00:12:21;9.35;;;7.75;;
24745;SDS011;12845;52.042;6.838;2022-09-21T00:14:46;8.73;;;7.13;;
24745;SDS011;12845;52.042;6.838;2022-09-21T00:17:12;9.32;;;6.72;;
24745;SDS011;12845;52.042;6.838;2022-09-21T00:19:37;9.63;;;6.95;;
24745;SDS011;12845;52.042;6.838;2022-09-21T00:22:02;9.25;;;6.85;;
24745;SDS011;12845;52.042;6.838;2022-09-21T00:24:28;9.88;;;7.00;;
24745;SDS011;12845;52.042;6.838;2022-09-21T00:26:53;8.45;;;6.40;;
24745;SDS011;12845;52.042;6.838;2022-09-21T00:29:18;9.45;;;5.93;;
24745;SDS011;12845;52.042;6.838;2022-09-21T00:31:44;12.45;;;6.82;;
24745;SDS011;12845;52.042;6.838;2022-09-21T00:34:09;7.95;;;6.40;;
24745;SDS011;12845;52.042;6.838;2022-09-21T00:36:34;11.27;;;6.80;;
24745;SDS011;12845;52.042;6.838;2022-09-21T00:39:00;7.28;;;6.20;;
24745;SDS011;12845;52.042;6.838;2022-09-21T00:41:26;8.73;;;5.97;;
24745;SDS011;12845;52.042;6.838;2022-09-21T00:46:46;8.40;;;6.25;;
24745;SDS011;12845;52.042;6.838;2022-09-21T00:49:15;8.50;;;5.90;;
24745;SDS011;12845;52.042;6.838;2022-09-21T00:51:42;7.85;;;6.60;;
24745;SDS011;12845;52.042;6.838;2022-09-21T00:54:10;9.52;;;6.10;;
24745;SDS011;12845;52.042;6.838;2022-09-21T00:56:41;7.85;;;5.80;;
24745;SDS011;12845;52.042;6.838;2022-09-21T00:59:08;7.95;;;5.88;;
24745;SDS011;12845;52.042;6.838;2022-09-21T01:01:34;7.47;;;6.13;;
24745;SDS011;12845;52.042;6.838;2022-09-21T01:04:02;8.13;;;6.85;;
24745;SDS011;12845;52.042;6.838;2022-09-21T01:06:29;9.65;;;6.55;;
24745;SDS011;12845;52.042;6.838;2022-09-21T01:08:57;8.57;;;5.88;;
24745;SDS011;12845;52.042;6.838;2022-09-21T01:17:02;8.30;;;6.25;;
24745;SDS011;12845;52.042;6.838;2022-09-21T01:27:44;8.85;;;6.82;;
24745;SDS011;12845;52.042;6.838;2022-09-21T01:30:12;9.93;;;6.95;;
24745;SDS011;12845;52.042;6.838;2022-09-21T01:32:45;9.02;;;6.10;;
24745;SDS011;12845;52.042;6.838;2022-09-21T01:35:20;8.05;;;6.57;;
24745;SDS011;12845;52.042;6.838;2022-09-21T01:38:08;8.75;;;6.50;;
24745;SDS011;12845;52.042;6.838;2022-09-21T01:40:39;8.18;;;6.38;;
24745;SDS011;12845;52.042;6.838;2022-09-21T01:43:08;12.07;;;6.00;;
24745;SDS011;12845;52.042;6.838;2022-09-21T01:46:00;9.48;;;6.10;;
24745;SDS011;12845;52.042;6.838;2022-09-21T01:48:27;7.47;;;5.80;;
24745;SDS011;12845;52.042;6.838;2022-09-21T01:50:55;10.50;;;6.43;;
24745;SDS011;12845;52.042;6.838;2022-09-21T01:53:23;8.90;;;6.90;;
24745;SDS011;12845;52.042;6.838;2022-09-21T01:55:56;8.20;;;6.32;;
24745;SDS011;12845;52.042;6.838;2022-09-21T01:58:33;8.10;;;5.82;;
24745;SDS011;12845;52.042;6.838;2022-09-21T02:01:03;7.32;;;5.85;;
24745;SDS011;12845;52.042;6.838;2022-09-21T02:03:37;9.70;;;6.28;;
24745;SDS011;12845;52.042;6.838;2022-09-21T02:06:07;9.25;;;6.10;;
24745;SDS011;12845;52.042;6.838;2022-09-21T02:08:34;8.85;;;5.55;;
24745;SDS011;12845;52.042;6.838;2022-09-21T02:11:00;8.73;;;5.97;;
24745;SDS011;12845;52.042;6.838;2022-09-21T02:13:28;8.38;;;5.65;;
24745;SDS011;12845;52.042;6.838;2022-09-21T02:21:31;6.38;;;4.78;;
24745;SDS011;12845;52.042;6.838;2022-09-21T02:24:12;7.43;;;4.93;;
24745;SDS011;12845;52.042;6.838;2022-09-21T02:29:50;7.53;;;5.60;;
24745;SDS011;12845;52.042;6.838;2022-09-21T02:32:27;7.40;;;5.50;;
24745;SDS011;12845;52.042;6.838;2022-09-21T02:41:25;8.07;;;4.93;;
24745;SDS011;12845;52.042;6.838;2022-09-21T02:44:12;8.27;;;5.40;;
24745;SDS011;12845;52.042;6.838;2022-09-21T02:46:48;7.45;;;4.72;;
24745;SDS011;12845;52.042;6.838;2022-09-21T02:49:19;7.47;;;4.88;;
24745;SDS011;12845;52.042;6.838;2022-09-21T02:51:51;5.25;;;4.35;;
24745;SDS011;12845;52.042;6.838;2022-09-21T02:54:21;6.28;;;4.78;;
24745;SDS011;12845;52.042;6.838;2022-09-21T02:56:48;7.28;;;4.85;;
24745;SDS011;12845;52.042;6.838;2022-09-21T02:59:15;7.10;;;5.20;;
24745;SDS011;12845;52.042;6.838;2022-09-21T03:01:41;6.28;;;4.90;;
24745;SDS011;12845;52.042;6.838;2022-09-21T03:04:07;7.40;;;4.32;;
24745;SDS011;12845;52.042;6.838;2022-09-21T03:06:33;7.47;;;4.70;;
24745;SDS011;12845;52.042;6.838;2022-09-21T03:08:58;8.20;;;4.75;;
24745;SDS011;12845;52.042;6.838;2022-09-21T03:11:24;8.70;;;4.97;;
24745;SDS011;12845;52.042;6.838;2022-09-21T03:13:50;8.00;;;4.70;;
24745;SDS011;12845;52.042;6.838;2022-09-21T03:16:15;6.47;;;4.47;;
24745;SDS011;12845;52.042;6.838;2022-09-21T03:18:41;6.50;;;4.30;;
24745;SDS011;12845;52.042;6.838;2022-09-21T03:21:08;7.88;;;5.00;;
24745;SDS011;12845;52.042;6.838;2022-09-21T03:23:34;9.10;;;4.78;;
24745;SDS011;12845;52.042;6.838;2022-09-21T03:26:00;7.30;;;4.95;;
24745;SDS011;12845;52.042;6.838;2022-09-21T03:28:26;7.82;;;5.22;;
24745;SDS011;12845;52.042;6.838;2022-09-21T03:30:51;9.02;;;5.30;;
24745;SDS011;12845;52.042;6.838;2022-09-21T03:33:16;8.02;;;5.13;;
24745;SDS011;12845;52.042;6.838;2022-09-21T03:35:43;8.15;;;5.00;;
24745;SDS011;12845;52.042;6.838;2022-09-21T03:38:09;8.93;;;5.53;;
24745;SDS011;12845;52.042;6.838;2022-09-21T03:40:35;7.22;;;5.15;;
24745;SDS011;12845;52.042;6.838;2022-09-21T03:43:00;6.90;;;4.97;;
24745;SDS011;12845;52.042;6.838;2022-09-21T03:45:25;7.35;;;5.00;;
24745;SDS011;12845;52.042;6.838;2022-09-21T03:47:53;7.88;;;5.25;;
24745;SDS011;12845;52.042;6.838;2022-09-21T03:50:20;8.05;;;5.38;;
24745;SDS011;12845;52.042;6.838;2022-09-21T03:52:46;7.85;;;5.57;;
24745;SDS011;12845;52.042;6.838;2022-09-21T03:55:11;7.70;;;5.13;;
24745;SDS011;12845;52.042;6.838;2022-09-21T03:57:36;8.00;;;5.03;;
24745;SDS011;12845;52.042;6.838;2022-09-21T04:00:03;9.05;;;5.55;;
24745;SDS011;12845;52.042;6.838;2022-09-21T04:02:29;6.78;;;5.28;;
24745;SDS011;12845;52.042;6.838;2022-09-21T04:04:55;9.57;;;5.68;;
24745;SDS011;12845;52.042;6.838;2022-09-21T04:07:21;7.43;;;5.13;;
24745;SDS011;12845;52.042;6.838;2022-09-21T04:09:46;10.07;;;6.07;;
24745;SDS011;12845;52.042;6.838;2022-09-21T04:12:11;7.55;;;5.65;;
24745;SDS011;12845;52.042;6.838;2022-09-21T04:14:37;9.68;;;6.47;;
24745;SDS011;12845;52.042;6.838;2022-09-21T04:17:02;7.78;;;5.90;;
24745;SDS011;12845;52.042;6.838;2022-09-21T04:19:28;7.60;;;5.70;;
24745;SDS011;12845;52.042;6.838;2022-09-21T04:21:53;9.40;;;5.60;;
24745;SDS011;12845;52.042;6.838;2022-09-21T04:24:20;9.25;;;5.80;;
24745;SDS011;12845;52.042;6.838;2022-09-21T04:26:46;9.43;;;6.10;;
24745;SDS011;12845;52.042;6.838;2022-09-21T04:29:14;9.27;;;5.82;;
24745;SDS011;12845;52.042;6.838;2022-09-21T04:31:40;8.60;;;6.00;;
24745;SDS011;12845;52.042;6.838;2022-09-21T04:34:07;10.43;;;5.57;;
24745;SDS011;12845;52.042;6.838;2022-09-21T04:36:36;8.20;;;5.47;;
24745;SDS011;12845;52.042;6.838;2022-09-21T04:39:01;8.75;;;5.75;;
24745;SDS011;12845;52.042;6.838;2022-09-21T04:41:28;7.15;;;5.20;;
24745;SDS011;12845;52.042;6.838;2022-09-21T04:43:53;8.10;;;5.88;;
24745;SDS011;12845;52.042;6.838;2022-09-21T04:46:19;11.10;;;5.90;;
24745;SDS011;12845;52.042;6.838;2022-09-21T04:48:45;9.48;;;6.07;;
24745;SDS011;12845;52.042;6.838;2022-09-21T04:51:10;8.75;;;6.13;;
24745;SDS011;12845;52.042;6.838;2022-09-21T04:53:38;10.02;;;6.50;;
24745;SDS011;12845;52.042;6.838;2022-09-21T04:56:05;8.52;;;6.82;;
24745;SDS011;12845;52.042;6.838;2022-09-21T04:58:32;11.25;;;6.10;;
24745;SDS011;12845;52.042;6.838;2022-09-21T05:00:57;10.88;;;7.05;;
24745;SDS011;12845;52.042;6.838;2022-09-21T05:03:23;9.63;;;7.05;;
24745;SDS011;12845;52.042;6.838;2022-09-21T05:05:50;10.38;;;6.95;;
24745;SDS011;12845;52.042;6.838;2022-09-21T05:08:20;10.38;;;7.20;;
24745;SDS011;12845;52.042;6.838;2022-09-21T05:11:08;9.23;;;7.30;;
24745;SDS011;12845;52.042;6.838;2022-09-21T05:13:39;10.10;;;7.55;;
24745;SDS011;12845;52.042;6.838;2022-09-21T05:16:06;9.32;;;7.25;;
24745;SDS011;12845;52.042;6.838;2022-09-21T05:18:31;11.43;;;7.45;;
24745;SDS011;12845;52.042;6.838;2022-09-21T05:20:57;12.65;;;7.22;;
24745;SDS011;12845;52.042;6.838;2022-09-21T05:23:24;12.00;;;7.13;;
24745;SDS011;12845;52.042;6.838;2022-09-21T05:25:50;11.32;;;7.25;;
24745;SDS011;12845;52.042;6.838;2022-09-21T05:28:16;12.73;;;7.70;;
24745;SDS011;12845;52.042;6.838;2022-09-21T05:30:45;10.57;;;7.28;;
24745;SDS011;12845;52.042;6.838;2022-09-21T05:33:17;11.32;;;7.57;;
24745;SDS011;12845;52.042;6.838;2022-09-21T05:35:54;13.73;;;7.80;;
24745;SDS011;12845;52.042;6.838;2022-09-21T05:38:29;11.27;;;8.05;;
24745;SDS011;12845;52.042;6.838;2022-09-21T05:40:55;11.95;;;8.68;;
24745;SDS011;12845;52.042;6.838;2022-09-21T05:43:21;16.02;;;8.68;;
24745;SDS011;12845;52.042;6.838;2022-09-21T05:45:47;12.82;;;8.25;;
24745;SDS011;12845;52.042;6.838;2022-09-21T05:48:26;12.70;;;9.40;;
24745;SDS011;12845;52.042;6.838;2022-09-21T05:50:56;13.23;;;8.75;;
24745;SDS011;12845;52.042;6.838;2022-09-21T06:04:34;14.70;;;9.98;;
24745;SDS011;12845;52.042;6.838;2022-09-21T06:07:00;13.80;;;10.20;;
24745;SDS011;12845;52.042;6.838;2022-09-21T06:09:25;18.75;;;10.40;;
24745;SDS011;12845;52.042;6.838;2022-09-21T06:11:52;15.48;;;10.35;;
24745;SDS011;12845;52.042;6.838;2022-09-21T06:14:17;14.77;;;11.82;;
24745;SDS011;12845;52.042;6.838;2022-09-21T06:16:48;19.75;;;12.88;;
24745;SDS011;12845;52.042;6.838;2022-09-21T06:19:14;19.02;;;11.85;;
24745;SDS011;12845;52.042;6.838;2022-09-21T06:21:39;17.88;;;12.98;;
24745;SDS011;12845;52.042;6.838;2022-09-21T06:24:05;29.75;;;18.40;;
24745;SDS011;12845;52.042;6.838;2022-09-21T06:26:30;28.25;;;18.05;;
24745;SDS011;12845;52.042;6.838;2022-09-21T06:28:55;25.05;;;17.40;;
24745;SDS011;12845;52.042;6.838;2022-09-21T06:31:21;24.23;;;15.93;;
24745;SDS011;12845;52.042;6.838;2022-09-21T06:33:46;24.35;;;15.30;;
24745;SDS011;12845;52.042;6.838;2022-09-21T06:36:11;23.67;;;16.30;;
24745;SDS011;12845;52.042;6.838;2022-09-21T06:38:38;22.15;;;15.20;;
24745;SDS011;12845;52.042;6.838;2022-09-21T06:41:03;23.67;;;15.23;;
24745;SDS011;12845;52.042;6.838;2022-09-21T06:43:30;22.90;;;16.10;;
24745;SDS011;12845;52.042;6.838;2022-09-21T06:45:57;20.55;;;14.63;;
24745;SDS011;12845;52.042;6.838;2022-09-21T06:48:24;23.77;;;15.68;;
24745;SDS011;12845;52.042;6.838;2022-09-21T06:50:54;23.15;;;15.43;;
24745;SDS011;12845;52.042;6.838;2022-09-21T06:53:21;22.30;;;16.08;;
24745;SDS011;12845;52.042;6.838;2022-09-21T06:55:46;25.77;;;17.80;;
24745;SDS011;12845;52.042;6.838;2022-09-21T06:58:12;28.98;;;18.73;;
24745;SDS011;12845;52.042;6.838;2022-09-21T07:00:37;23.30;;;17.83;;
24745;SDS011;12845;52.042;6.838;2022-09-21T07:03:02;25.33;;;17.63;;
24745;SDS011;12845;52.042;6.838;2022-09-21T07:05:28;28.33;;;17.98;;
24745;SDS011;12845;52.042;6.838;2022-09-21T07:07:56;32.10;;;21.58;;
24745;SDS011;12845;52.042;6.838;2022-09-21T07:10:22;28.08;;;20.70;;
24745;SDS011;12845;52.042;6.838;2022-09-21T07:12:48;34.20;;;21.42;;
24745;SDS011;12845;52.042;6.838;2022-09-21T07:15:15;32.08;;;22.30;;
24745;SDS011;12845;52.042;6.838;2022-09-21T07:17:41;36.60;;;24.20;;
24745;SDS011;12845;52.042;6.838;2022-09-21T07:20:08;31.42;;;24.13;;
24745;SDS011;12845;52.042;6.838;2022-09-21T07:22:34;37.50;;;24.52;;
24745;SDS011;12845;52.042;6.838;2022-09-21T07:24:59;37.33;;;26.45;;
24745;SDS011;12845;52.042;6.838;2022-09-21T07:27:26;36.72;;;25.98;;
24745;SDS011;12845;52.042;6.838;2022-09-21T07:29:53;42.60;;;28.55;;
24745;SDS011;12845;52.042;6.838;2022-09-21T07:32:18;36.90;;;27.77;;
24745;SDS011;12845;52.042;6.838;2022-09-21T07:34:44;38.55;;;26.70;;
24745;SDS011;12845;52.042;6.838;2022-09-21T07:37:10;35.95;;;26.75;;
24745;SDS011;12845;52.042;6.838;2022-09-21T07:39:36;35.22;;;24.33;;
24745;SDS011;12845;52.042;6.838;2022-09-21T07:42:02;29.08;;;21.77;;
24745;SDS011;12845;52.042;6.838;2022-09-21T07:44:28;31.90;;;22.55;;
24745;SDS011;12845;52.042;6.838;2022-09-21T07:46:54;33.78;;;24.73;;
24745;SDS011;12845;52.042;6.838;2022-09-21T07:49:19;30.45;;;22.02;;
24745;SDS011;12845;52.042;6.838;2022-09-21T07:51:45;29.05;;;21.38;;
24745;SDS011;12845;52.042;6.838;2022-09-21T07:54:10;31.05;;;21.67;;
24745;SDS011;12845;52.042;6.838;2022-09-21T07:56:36;30.38;;;20.83;;
24745;SDS011;12845;52.042;6.838;2022-09-21T07:59:02;29.63;;;19.92;;
24745;SDS011;12845;52.042;6.838;2022-09-21T08:01:31;29.17;;;19.38;;
24745;SDS011;12845;52.042;6.838;2022-09-21T08:04:05;28.38;;;18.85;;
24745;SDS011;12845;52.042;6.838;2022-09-21T08:06:32;25.75;;;18.88;;
24745;SDS011;12845;52.042;6.838;2022-09-21T08:08:59;23.90;;;18.38;;
24745;SDS011;12845;52.042;6.838;2022-09-21T08:11:26;27.40;;;18.80;;
24745;SDS011;12845;52.042;6.838;2022-09-21T08:13:52;25.83;;;18.65;;
24745;SDS011;12845;52.042;6.838;2022-09-21T08:16:20;24.23;;;18.77;;
24745;SDS011;12845;52.042;6.838;2022-09-21T08:18:45;25.30;;;19.05;;
24745;SDS011;12845;52.042;6.838;2022-09-21T08:21:10;28.23;;;17.83;;
24745;SDS011;12845;52.042;6.838;2022-09-21T08:23:37;24.42;;;18.70;;
24745;SDS011;12845;52.042;6.838;2022-09-21T08:26:06;24.63;;;17.50;;
24745;SDS011;12845;52.042;6.838;2022-09-21T08:28:32;23.88;;;17.13;;
24745;SDS011;12845;52.042;6.838;2022-09-21T08:31:00;22.27;;;15.63;;
24745;SDS011;12845;52.042;6.838;2022-09-21T08:33:26;24.20;;;14.73;;
24745;SDS011;12845;52.042;6.838;2022-09-21T08:35:52;20.73;;;13.95;;
24745;SDS011;12845;52.042;6.838;2022-09-21T08:38:19;21.98;;;14.07;;
24745;SDS011;12845;52.042;6.838;2022-09-21T08:40:44;16.67;;;11.90;;
24745;SDS011;12845;52.042;6.838;2022-09-21T08:43:11;14.93;;;9.55;;
24745;SDS011;12845;52.042;6.838;2022-09-21T08:45:41;16.30;;;9.73;;
24745;SDS011;12845;52.042;6.838;2022-09-21T08:48:13;15.55;;;10.52;;
24745;SDS011;12845;52.042;6.838;2022-09-21T08:50:48;14.50;;;9.07;;
24745;SDS011;12845;52.042;6.838;2022-09-21T08:53:54;14.88;;;9.35;;
24745;SDS011;12845;52.042;6.838;2022-09-21T08:56:13;16.92;;;9.77;;
24745;SDS011;12845;52.042;6.838;2022-09-21T08:58:40;15.20;;;9.35;;
24745;SDS011;12845;52.042;6.838;2022-09-21T09:11:41;11.93;;;8.38;;
24745;SDS011;12845;52.042;6.838;2022-09-21T09:14:29;13.05;;;8.30;;
24745;SDS011;12845;52.042;6.838;2022-09-21T09:19:55;12.48;;;7.30;;
24745;SDS011;12845;52.042;6.838;2022-09-21T09:22:24;11.93;;;6.28;;
24745;SDS011;12845;52.042;6.838;2022-09-21T09:24:54;8.73;;;6.13;;
24745;SDS011;12845;52.042;6.838;2022-09-21T09:27:26;11.77;;;5.35;;
24745;SDS011;12845;52.042;6.838;2022-09-21T09:30:12;10.30;;;6.38;;
24745;SDS011;12845;52.042;6.838;2022-09-21T09:38:02;6.15;;;3.03;;
24745;SDS011;12845;52.042;6.838;2022-09-21T09:43:06;6.05;;;3.20;;
24745;SDS011;12845;52.042;6.838;2022-09-21T09:50:58;6.47;;;3.65;;
24745;SDS011;12845;52.042;6.838;2022-09-21T09:53:24;7.75;;;4.07;;
24745;SDS011;12845;52.042;6.838;2022-09-21T09:55:55;11.13;;;4.78;;
24745;SDS011;12845;52.042;6.838;2022-09-21T10:04:06;6.70;;;3.70;;
24745;SDS011;12845;52.042;6.838;2022-09-21T10:06:33;8.50;;;3.17;;
24745;SDS011;12845;52.042;6.838;2022-09-21T10:08:59;8.18;;;3.97;;
24745;SDS011;12845;52.042;6.838;2022-09-21T10:11:33;8.82;;;3.42;;
24745;SDS011;12845;52.042;6.838;2022-09-21T10:14:08;11.13;;;6.50;;
24745;SDS011;12845;52.042;6.838;2022-09-21T10:16:41;10.25;;;7.18;;
24745;SDS011;12845;52.042;6.838;2022-09-21T10:19:15;9.18;;;6.10;;
24745;SDS011;12845;52.042;6.838;2022-09-21T10:21:44;10.98;;;5.25;;
24745;SDS011;12845;52.042;6.838;2022-09-21T10:27:05;12.77;;;5.93;;
24745;SDS011;12845;52.042;6.838;2022-09-21T10:29:46;6.28;;;4.22;;
24745;SDS011;12845;52.042;6.838;2022-09-21T10:39:58;7.00;;;3.25;;
24745;SDS011;12845;52.042;6.838;2022-09-21T10:42:24;10.30;;;4.28;;
24745;SDS011;12845;52.042;6.838;2022-09-21T10:44:51;7.45;;;4.43;;
24745;SDS011;12845;52.042;6.838;2022-09-21T10:50:03;7.47;;;4.28;;
24745;SDS011;12845;52.042;6.838;2022-09-21T10:52:36;7.25;;;4.10;;
24745;SDS011;12845;52.042;6.838;2022-09-21T10:55:05;8.93;;;4.15;;
24745;SDS011;12845;52.042;6.838;2022-09-21T10:57:39;6.40;;;4.63;;
24745;SDS011;12845;52.042;6.838;2022-09-21T11:02:59;6.60;;;4.05;;
24745;SDS011;12845;52.042;6.838;2022-09-21T11:05:31;6.90;;;4.40;;
24745;SDS011;12845;52.042;6.838;2022-09-21T11:10:33;5.47;;;3.42;;
24745;SDS011;12845;52.042;6.838;2022-09-21T11:18:32;5.50;;;2.42;;
24745;SDS011;12845;52.042;6.838;2022-09-21T11:21:05;7.45;;;2.75;;
24745;SDS011;12845;52.042;6.838;2022-09-21T11:29:02;3.85;;;1.23;;
24745;SDS011;12845;52.042;6.838;2022-09-21T11:39:37;4.32;;;1.20;;
24745;SDS011;12845;52.042;6.838;2022-09-21T11:44:43;2.20;;;0.57;;
24745;SDS011;12845;52.042;6.838;2022-09-21T11:58:28;3.70;;;0.90;;
24745;SDS011;12845;52.042;6.838;2022-09-21T12:04:18;2.60;;;0.60;;
24745;SDS011;12845;52.042;6.838;2022-09-21T12:14:47;2.22;;;0.50;;
24745;SDS011;12845;52.042;6.838;2022-09-21T12:17:38;3.30;;;0.60;;
24745;SDS011;12845;52.042;6.838;2022-09-21T12:23:20;4.22;;;0.80;;
24745;SDS011;12845;52.042;6.838;2022-09-21T12:25:52;4.28;;;0.90;;
24745;SDS011;12845;52.042;6.838;2022-09-21T12:28:35;4.22;;;0.80;;
24745;SDS011;12845;52.042;6.838;2022-09-21T12:34:12;1.95;;;0.52;;
24745;SDS011;12845;52.042;6.838;2022-09-21T12:36:59;1.27;;;0.30;;
24745;SDS011;12845;52.042;6.838;2022-09-21T12:39:40;1.52;;;0.40;;
24745;SDS011;12845;52.042;6.838;2022-09-21T12:44:55;2.53;;;0.60;;
24745;SDS011;12845;52.042;6.838;2022-09-21T12:47:45;2.00;;;0.50;;
24745;SDS011;12845;52.042;6.838;2022-09-21T12:50:18;3.83;;;0.60;;
24745;SDS011;12845;52.042;6.838;2022-09-21T12:52:50;1.75;;;0.60;;
24745;SDS011;12845;52.042;6.838;2022-09-21T13:00:41;2.95;;;0.60;;
24745;SDS011;12845;52.042;6.838;2022-09-21T13:03:26;2.17;;;0.52;;
24745;SDS011;12845;52.042;6.838;2022-09-21T13:09:02;3.53;;;0.60;;
24745;SDS011;12845;52.042;6.838;2022-09-21T13:11:30;1.73;;;0.40;;
24745;SDS011;12845;52.042;6.838;2022-09-21T13:13:58;4.00;;;0.77;;
24745;SDS011;12845;52.042;6.838;2022-09-21T13:18:57;5.55;;;0.98;;
24745;SDS011;12845;52.042;6.838;2022-09-21T13:21:25;4.65;;;0.80;;
24745;SDS011;12845;52.042;6.838;2022-09-21T13:34:36;4.80;;;1.08;;
24745;SDS011;12845;52.042;6.838;2022-09-21T13:44:53;3.80;;;0.88;;
24745;SDS011;12845;52.042;6.838;2022-09-21T13:47:30;2.75;;;0.65;;
24745;SDS011;12845;52.042;6.838;2022-09-21T13:49:58;2.22;;;0.65;;
24745;SDS011;12845;52.042;6.838;2022-09-21T13:52:36;3.33;;;0.52;;
24745;SDS011;12845;52.042;6.838;2022-09-21T13:55:53;1.33;;;0.50;;
24745;SDS011;12845;52.042;6.838;2022-09-21T13:57:54;3.20;;;0.68;;
24745;SDS011;12845;52.042;6.838;2022-09-21T14:00:33;1.70;;;0.45;;
24745;SDS011;12845;52.042;6.838;2022-09-21T14:03:43;2.73;;;0.80;;
24745;SDS011;12845;52.042;6.838;2022-09-21T14:11:22;4.13;;;0.82;;
24745;SDS011;12845;52.042;6.838;2022-09-21T14:21:55;32.10;;;12.98;;
24745;SDS011;12845;52.042;6.838;2022-09-21T14:24:44;2.47;;;0.70;;
24745;SDS011;12845;52.042;6.838;2022-09-21T14:27:15;3.70;;;0.80;;
24745;SDS011;12845;52.042;6.838;2022-09-21T14:30:32;1.65;;;0.60;;
24745;SDS011;12845;52.042;6.838;2022-09-21T14:35:43;2.50;;;0.80;;
24745;SDS011;12845;52.042;6.838;2022-09-21T14:38:24;3.67;;;0.70;;
24745;SDS011;12845;52.042;6.838;2022-09-21T14:40:55;2.03;;;0.75;;
24745;SDS011;12845;52.042;6.838;2022-09-21T14:43:24;4.97;;;1.27;;
24745;SDS011;12845;52.042;6.838;2022-09-21T14:46:06;3.15;;;0.77;;
24745;SDS011;12845;52.042;6.838;2022-09-21T15:02:26;3.10;;;0.90;;
24745;SDS011;12845;52.042;6.838;2022-09-21T15:13:37;2.40;;;0.90;;
24745;SDS011;12845;52.042;6.838;2022-09-21T15:18:46;2.22;;;0.77;;
24745;SDS011;12845;52.042;6.838;2022-09-21T15:21:25;2.63;;;0.50;;
24745;SDS011;12845;52.042;6.838;2022-09-21T15:23:53;4.00;;;0.83;;
24745;SDS011;12845;52.042;6.838;2022-09-21T15:26:29;1.85;;;0.60;;
24745;SDS011;12845;52.042;6.838;2022-09-21T15:29:02;1.67;;;0.60;;
24745;SDS011;12845;52.042;6.838;2022-09-21T15:31:37;4.68;;;0.88;;
24745;SDS011;12845;52.042;6.838;2022-09-21T15:34:05;3.22;;;0.77;;
24745;SDS011;12845;52.042;6.838;2022-09-21T15:36:39;2.35;;;0.90;;
24745;SDS011;12845;52.042;6.838;2022-09-21T15:39:18;2.35;;;0.68;;
24745;SDS011;12845;52.042;6.838;2022-09-21T15:41:46;2.47;;;0.93;;
24745;SDS011;12845;52.042;6.838;2022-09-21T15:44:14;2.67;;;0.70;;
24745;SDS011;12845;52.042;6.838;2022-09-21T15:46:49;4.28;;;0.90;;
24745;SDS011;12845;52.042;6.838;2022-09-21T15:49:17;2.80;;;0.70;;
24745;SDS011;12845;52.042;6.838;2022-09-21T15:51:46;3.10;;;0.70;;
24745;SDS011;12845;52.042;6.838;2022-09-21T15:57:21;2.53;;;0.70;;
24745;SDS011;12845;52.042;6.838;2022-09-21T16:00:03;4.20;;;0.75;;
24745;SDS011;12845;52.042;6.838;2022-09-21T16:02:35;3.10;;;0.75;;
24745;SDS011;12845;52.042;6.838;2022-09-21T16:05:02;1.85;;;0.73;;
24745;SDS011;12845;52.042;6.838;2022-09-21T16:07:33;2.92;;;0.80;;
24745;SDS011;12845;52.042;6.838;2022-09-21T16:10:00;3.38;;;0.90;;
24745;SDS011;12845;52.042;6.838;2022-09-21T16:15:00;3.63;;;0.90;;
24745;SDS011;12845;52.042;6.838;2022-09-21T16:17:35;3.97;;;1.00;;
24745;SDS011;12845;52.042;6.838;2022-09-21T16:20:03;3.45;;;1.00;;
24745;SDS011;12845;52.042;6.838;2022-09-21T16:22:42;3.35;;;0.85;;
24745;SDS011;12845;52.042;6.838;2022-09-21T16:25:22;2.72;;;0.65;;
24745;SDS011;12845;52.042;6.838;2022-09-21T16:30:51;3.00;;;0.82;;
24745;SDS011;12845;52.042;6.838;2022-09-21T16:33:38;3.00;;;0.70;;
24745;SDS011;12845;52.042;6.838;2022-09-21T16:36:50;4.20;;;0.88;;
24745;SDS011;12845;52.042;6.838;2022-09-21T16:38:53;1.77;;;0.63;;
24745;SDS011;12845;52.042;6.838;2022-09-21T16:41:19;5.45;;;0.82;;
24745;SDS011;12845;52.042;6.838;2022-09-21T16:43:46;4.03;;;0.90;;
24745;SDS011;12845;52.042;6.838;2022-09-21T16:46:12;3.88;;;1.00;;
24745;SDS011;12845;52.042;6.838;2022-09-21T16:48:37;3.75;;;0.80;;
24745;SDS011;12845;52.042;6.838;2022-09-21T16:51:13;5.32;;;0.95;;
24745;SDS011;12845;52.042;6.838;2022-09-21T16:53:41;5.15;;;1.30;;
24745;SDS011;12845;52.042;6.838;2022-09-21T16:56:09;3.75;;;1.30;;
24745;SDS011;12845;52.042;6.838;2022-09-21T16:58:38;3.55;;;1.52;;
24745;SDS011;12845;52.042;6.838;2022-09-21T17:01:04;4.88;;;1.30;;
24745;SDS011;12845;52.042;6.838;2022-09-21T17:03:33;3.70;;;1.60;;
24745;SDS011;12845;52.042;6.838;2022-09-21T17:05:58;2.60;;;1.13;;
24745;SDS011;12845;52.042;6.838;2022-09-21T17:08:24;2.67;;;1.17;;
24745;SDS011;12845;52.042;6.838;2022-09-21T17:10:54;4.05;;;1.25;;
24745;SDS011;12845;52.042;6.838;2022-09-21T17:13:19;2.83;;;1.10;;
24745;SDS011;12845;52.042;6.838;2022-09-21T17:15:45;3.92;;;0.98;;
24745;SDS011;12845;52.042;6.838;2022-09-21T17:18:11;3.05;;;0.90;;
24745;SDS011;12845;52.042;6.838;2022-09-21T17:20:42;3.88;;;1.15;;
24745;SDS011;12845;52.042;6.838;2022-09-21T17:23:09;4.30;;;1.30;;
24745;SDS011;12845;52.042;6.838;2022-09-21T17:25:35;2.65;;;1.00;;
24745;SDS011;12845;52.042;6.838;2022-09-21T17:28:01;4.57;;;1.10;;
24745;SDS011;12845;52.042;6.838;2022-09-21T17:30:27;2.83;;;0.70;;
24745;SDS011;12845;52.042;6.838;2022-09-21T17:32:53;4.35;;;1.05;;
24745;SDS011;12845;52.042;6.838;2022-09-21T17:37:58;3.63;;;1.17;;
24745;SDS011;12845;52.042;6.838;2022-09-21T17:40:24;2.42;;;0.80;;
24745;SDS011;12845;52.042;6.838;2022-09-21T17:42:51;2.67;;;1.08;;
24745;SDS011;12845;52.042;6.838;2022-09-21T17:47:56;3.03;;;1.15;;
24745;SDS011;12845;52.042;6.838;2022-09-21T17:50:22;4.78;;;2.05;;
24745;SDS011;12845;52.042;6.838;2022-09-21T17:52:51;3.72;;;1.90;;
24745;SDS011;12845;52.042;6.838;2022-09-21T17:55:36;7.80;;;2.00;;
24745;SDS011;12845;52.042;6.838;2022-09-21T17:58:21;4.15;;;1.52;;
24745;SDS011;12845;52.042;6.838;2022-09-21T18:03:53;3.13;;;1.60;;
24745;SDS011;12845;52.042;6.838;2022-09-21T18:06:18;4.50;;;1.60;;
24745;SDS011;12845;52.042;6.838;2022-09-21T18:08:44;4.13;;;1.75;;
24745;SDS011;12845;52.042;6.838;2022-09-21T18:21:44;5.30;;;2.95;;
24745;SDS011;12845;52.042;6.838;2022-09-21T18:24:22;5.18;;;3.05;;
24745;SDS011;12845;52.042;6.838;2022-09-21T18:26:55;6.30;;;2.80;;
24745;SDS011;12845;52.042;6.838;2022-09-21T18:29:29;5.20;;;3.15;;
24745;SDS011;12845;52.042;6.838;2022-09-21T18:40:21;6.20;;;3.58;;
24745;SDS011;12845;52.042;6.838;2022-09-21T18:45:45;6.38;;;3.60;;
24745;SDS011;12845;52.042;6.838;2022-09-21T18:53:44;8.98;;;5.90;;
24745;SDS011;12845;52.042;6.838;2022-09-21T18:56:10;6.78;;;4.30;;
24745;SDS011;12845;52.042;6.838;2022-09-21T18:58:37;6.82;;;3.00;;
24745;SDS011;12845;52.042;6.838;2022-09-21T19:01:03;6.07;;;3.17;;
24745;SDS011;12845;52.042;6.838;2022-09-21T19:03:29;5.32;;;2.90;;
24745;SDS011;12845;52.042;6.838;2022-09-21T19:06:18;8.93;;;3.28;;
24745;SDS011;12845;52.042;6.838;2022-09-21T19:08:47;8.63;;;4.10;;
24745;SDS011;12845;52.042;6.838;2022-09-21T19:11:33;7.32;;;4.38;;
24745;SDS011;12845;52.042;6.838;2022-09-21T19:14:30;10.13;;;6.35;;
24745;SDS011;12845;52.042;6.838;2022-09-21T19:25:20;14.38;;;7.32;;